Time;durP1;ratioP1;P1;durP2;ratioP2;P2;SDS_P1;SDS_P2;PMS_P1;PMS_P2;Temp;Humidity;BMP_temperature;BMP_pressure;BME280_temperature;BME280_humidity;BME280_pressure;Samples;Min_cycle;Max_cycle;Signal;HPM_P1;HPM_P2
2022/04/13 00:00:49;;;;;;;17.53;12.30;;;13.20;99.10;;;;;;5093697;28;20470;-82
2022/04/13 00:03:16;;;;;;;12.43;10.03;;;13.00;99.90;;;;;;5087560;28;20848;-82
2022/04/13 00:05:43;;;;;;;18.67;12.13;;;13.10;99.90;;;;;;5079126;28;20450;-82
2022/04/13 00:08:10;;;;;;;12.53;10.10;;;13.10;99.90;;;;;;5080705;28;20454;-82
2022/04/13 00:10:37;;;;;;;11.83;9.33;;;13.20;99.90;;;;;;5095922;28;20468;-82
2022/04/13 00:13:04;;;;;;;11.83;9.03;;;13.20;99.90;;;;;;5092168;28;20465;-82
2022/04/13 00:15:33;;;;;;;10.33;9.07;;;13.20;99.90;;;;;;5090605;28;20448;-82
2022/04/13 00:18:01;;;;;;;11.97;10.23;;;13.20;99.90;;;;;;5092501;28;20473;-82
2022/04/13 00:20:28;;;;;;;10.90;8.97;;;13.20;99.90;;;;;;5090879;28;20497;-82
2022/04/13 00:22:55;;;;;;;10.20;9.20;;;13.20;99.90;;;;;;5077962;28;21030;-82
2022/04/13 00:25:22;;;;;;;10.60;8.37;;;13.20;99.90;;;;;;5078804;28;20451;-82
2022/04/13 00:27:48;;;;;;;11.13;9.20;;;13.20;99.90;;;;;;5086203;28;20455;-82
2022/04/13 00:30:15;;;;;;;9.27;7.77;;;13.20;99.90;;;;;;5099156;28;20470;-82
2022/04/13 00:32:43;;;;;;;7.57;6.77;;;13.20;99.90;;;;;;5089321;28;20443;-82
2022/04/13 00:35:10;;;;;;;6.33;5.73;;;13.20;99.90;;;;;;5081293;28;20781;-82
2022/04/13 00:37:39;;;;;;;7.90;6.40;;;13.20;99.90;;;;;;5089397;28;20454;-82
2022/04/13 00:40:06;;;;;;;7.73;6.90;;;13.10;99.90;;;;;;5099052;28;20532;-82
2022/04/13 00:42:33;;;;;;;7.13;6.43;;;13.10;99.90;;;;;;5099520;28;20474;-82
2022/04/13 00:45:00;;;;;;;6.70;5.57;;;13.10;99.90;;;;;;5091947;28;20448;-82
2022/04/13 00:47:27;;;;;;;6.23;5.67;;;13.10;99.90;;;;;;5085249;28;20814;-84
2022/04/13 00:49:55;;;;;;;5.40;5.00;;;13.00;99.90;;;;;;5102221;28;20462;-83
2022/04/13 00:52:24;;;;;;;6.80;5.40;;;13.00;99.90;;;;;;5102114;28;20457;-83
2022/04/13 00:54:54;;;;;;;5.80;5.30;;;13.00;99.90;;;;;;5106174;28;20442;-84
2022/04/13 00:57:22;;;;;;;6.63;5.50;;;13.00;99.90;;;;;;5081833;28;20462;-83
2022/04/13 00:59:53;;;;;;;5.77;5.27;;;12.90;99.90;;;;;;5093619;28;20505;-84
2022/04/13 01:02:22;;;;;;;7.17;5.30;;;12.90;99.90;;;;;;5096617;28;20448;-83
2022/04/13 01:04:50;;;;;;;7.50;6.80;;;12.90;99.90;;;;;;5097079;28;20453;-82
2022/04/13 01:07:19;;;;;;;10.00;7.87;;;12.80;99.90;;;;;;5095387;28;20450;-84
2022/04/13 01:09:47;;;;;;;11.70;9.27;;;12.80;99.90;;;;;;5094515;28;20474;-82
2022/04/13 01:12:13;;;;;;;15.57;11.30;;;12.60;99.90;;;;;;5082595;28;20444;-83
2022/04/13 01:14:40;;;;;;;12.77;8.73;;;12.30;99.90;;;;;;5096499;28;20806;-83
2022/04/13 01:17:07;;;;;;;13.73;10.77;;;12.20;99.90;;;;;;5096853;28;20457;-84
2022/04/13 01:19:34;;;;;;;17.90;11.80;;;12.10;99.90;;;;;;5098517;28;20485;-84
2022/04/13 01:22:16;;;;;;;14.87;10.43;;;12.20;99.90;;;;;;5093818;28;20455;-84
2022/04/13 01:24:43;;;;;;;11.50;8.53;;;12.10;99.90;;;;;;5078528;28;20446;-83
2022/04/13 01:27:10;;;;;;;10.27;8.93;;;12.20;99.90;;;;;;5089200;28;20463;-83
2022/04/13 01:29:36;;;;;;;11.80;10.13;;;12.20;99.90;;;;;;5084503;28;20537;-83
2022/04/13 01:32:04;;;;;;;10.67;8.70;;;12.10;99.90;;;;;;5094775;28;20458;-83
2022/04/13 01:34:31;;;;;;;11.23;8.73;;;12.00;99.90;;;;;;5097920;28;20446;-83
2022/04/13 01:36:57;;;;;;;10.70;9.10;;;11.90;99.90;;;;;;5084065;28;20979;-82
2022/04/13 01:39:25;;;;;;;10.97;9.40;;;11.90;99.90;;;;;;5097931;28;20485;-82
2022/04/13 01:41:52;;;;;;;11.77;9.60;;;11.90;99.90;;;;;;5065702;28;20477;-82
2022/04/13 01:44:19;;;;;;;13.47;9.50;;;11.90;99.90;;;;;;5089419;28;20490;-82
2022/04/13 01:46:45;;;;;;;11.37;9.37;;;11.90;99.90;;;;;;5094524;28;20449;-82
2022/04/13 01:49:12;;;;;;;12.37;10.30;;;11.90;99.90;;;;;;5063534;28;20481;-82
2022/04/13 01:51:39;;;;;;;8.43;7.60;;;11.90;99.90;;;;;;5094360;28;20450;-81
2022/04/13 01:54:06;;;;;;;10.90;7.80;;;11.90;99.90;;;;;;5079391;28;20469;-82
2022/04/13 01:56:34;;;;;;;7.77;7.20;;;11.90;99.90;;;;;;5079723;28;20442;-82
2022/04/13 01:59:01;;;;;;;11.27;8.80;;;11.90;99.90;;;;;;5085233;28;20477;-83
2022/04/13 02:01:29;;;;;;;10.53;8.20;;;11.80;99.90;;;;;;5090728;28;20454;-83
2022/04/13 02:03:56;;;;;;;8.43;7.47;;;11.80;99.90;;;;;;5078189;28;20511;-84
2022/04/13 02:06:22;;;;;;;8.10;7.27;;;11.70;99.90;;;;;;5078220;28;20454;-81
2022/04/13 02:08:49;;;;;;;8.90;7.33;;;11.70;99.90;;;;;;5095214;28;20456;-83
2022/04/13 02:11:16;;;;;;;7.83;7.03;;;11.80;99.90;;;;;;5089422;28;20454;-83
2022/04/13 02:13:44;;;;;;;8.67;7.87;;;11.70;99.90;;;;;;5094500;28;20444;-82
2022/04/13 02:16:11;;;;;;;8.97;7.80;;;11.70;99.90;;;;;;5077645;28;20457;-82
2022/04/13 02:18:37;;;;;;;6.23;5.40;;;11.70;99.90;;;;;;5095379;28;20453;-83
2022/04/13 02:21:04;;;;;;;7.10;6.50;;;11.70;99.90;;;;;;5096039;28;20450;-84
2022/04/13 02:23:31;;;;;;;8.40;5.53;;;11.60;99.90;;;;;;5078223;28;20556;-83
2022/04/13 02:25:58;;;;;;;7.33;6.63;;;11.60;99.90;;;;;;5078492;28;20450;-83
2022/04/13 02:28:24;;;;;;;7.03;6.00;;;11.60;99.90;;;;;;5094391;28;20455;-83
2022/04/13 02:30:53;;;;;;;6.77;6.17;;;11.50;99.90;;;;;;5094627;28;20860;-82
2022/04/13 02:33:20;;;;;;;7.47;6.77;;;11.50;99.90;;;;;;5078118;28;20442;-83
2022/04/13 02:35:47;;;;;;;7.53;7.07;;;11.50;99.90;;;;;;5093975;28;20814;-83
2022/04/13 02:38:13;;;;;;;7.00;6.40;;;11.50;99.90;;;;;;5092915;28;20422;-82
2022/04/13 02:40:40;;;;;;;7.13;6.53;;;11.50;99.90;;;;;;5097238;28;20475;-82
2022/04/13 02:43:07;;;;;;;7.23;6.47;;;11.50;99.90;;;;;;5100392;28;20488;-82
2022/04/13 02:45:34;;;;;;;8.27;6.60;;;11.40;99.90;;;;;;5105608;28;20455;-83
2022/04/13 02:48:03;;;;;;;7.60;6.30;;;11.40;99.90;;;;;;5092155;28;20456;-82
2022/04/13 02:50:29;;;;;;;7.50;6.70;;;11.30;99.90;;;;;;5085035;28;20469;-83
2022/04/13 02:52:56;;;;;;;8.00;7.30;;;11.10;99.90;;;;;;5087125;28;20454;-83
2022/04/13 02:55:23;;;;;;;7.70;7.00;;;10.90;99.90;;;;;;5100916;28;20449;-83
2022/04/13 02:57:49;;;;;;;7.13;6.50;;;10.90;99.90;;;;;;5093559;28;20464;-82
2022/04/13 03:00:17;;;;;;;6.37;5.77;;;11.00;99.90;;;;;;5085657;28;20476;-82
2022/04/13 03:02:44;;;;;;;7.97;6.13;;;11.00;99.90;;;;;;5101161;28;20445;-83
2022/04/13 03:05:13;;;;;;;7.90;7.13;;;11.00;99.90;;;;;;5098867;28;20471;-83
2022/04/13 03:07:39;;;;;;;7.47;6.83;;;11.00;99.90;;;;;;5094377;28;20460;-82
2022/04/13 03:10:06;;;;;;;9.00;8.13;;;11.00;99.90;;;;;;5081495;28;20466;-82
2022/04/13 03:12:34;;;;;;;6.67;6.13;;;11.00;99.90;;;;;;5081875;28;20449;-82
2022/04/13 03:15:01;;;;;;;7.63;6.30;;;11.00;99.90;;;;;;5082118;28;20885;-82
2022/04/13 03:17:28;;;;;;;6.27;5.77;;;11.00;99.90;;;;;;5095860;28;20445;-81
2022/04/13 03:19:55;;;;;;;5.40;4.90;;;11.00;99.90;;;;;;5101106;28;20495;-81
2022/04/13 03:22:24;;;;;;;5.47;5.10;;;10.90;99.90;;;;;;5096916;28;20453;-82
2022/04/13 03:24:51;;;;;;;6.57;6.07;;;10.80;99.90;;;;;;5101010;28;20459;-82
2022/04/13 03:27:18;;;;;;;6.10;5.53;;;10.90;99.90;;;;;;5070079;28;20514;-82
2022/04/13 03:29:45;;;;;;;5.70;5.30;;;10.90;99.90;;;;;;5095085;28;20481;-82
2022/04/13 03:32:12;;;;;;;5.07;4.67;;;10.80;99.90;;;;;;5100476;28;20815;-82
2022/04/13 03:34:39;;;;;;;5.73;5.30;;;10.80;99.90;;;;;;5091232;28;20448;-82
2022/04/13 03:37:05;;;;;;;5.23;4.83;;;10.80;99.90;;;;;;5099363;28;20976;-82
2022/04/13 03:39:33;;;;;;;6.90;6.30;;;10.80;99.90;;;;;;5081672;28;20471;-82
2022/04/13 03:42:00;;;;;;;6.70;6.20;;;10.80;99.90;;;;;;5086141;28;20973;-82
2022/04/13 03:44:27;;;;;;;6.37;5.80;;;10.80;99.90;;;;;;5100638;28;20481;-82
2022/04/13 03:46:53;;;;;;;6.20;5.70;;;10.70;99.90;;;;;;5095018;28;20985;-82
2022/04/13 03:49:20;;;;;;;7.90;6.50;;;10.70;99.90;;;;;;5095025;28;20484;-82
2022/04/13 03:51:47;;;;;;;8.00;5.70;;;10.60;99.90;;;;;;5084018;28;20981;-82
2022/04/13 03:54:14;;;;;;;5.73;5.13;;;10.70;99.90;;;;;;5093503;28;20424;-82
2022/04/13 03:56:42;;;;;;;5.90;5.37;;;10.70;99.90;;;;;;5087105;28;20543;-82
2022/04/13 03:59:09;;;;;;;5.87;5.47;;;10.60;99.90;;;;;;5100496;28;21138;-82
2022/04/13 04:01:36;;;;;;;5.87;5.37;;;10.60;99.90;;;;;;5085774;28;20449;-82
2022/04/13 04:04:02;;;;;;;7.57;6.50;;;10.50;99.90;;;;;;5085853;28;20482;-83
2022/04/13 04:06:29;;;;;;;7.10;6.40;;;10.50;99.90;;;;;;5098386;28;20462;-83
2022/04/13 04:08:56;;;;;;;6.87;6.10;;;10.30;99.90;;;;;;5100227;28;20467;-83
2022/04/13 04:11:23;;;;;;;6.50;5.80;;;10.20;99.90;;;;;;5092680;28;20455;-84
2022/04/13 04:13:51;;;;;;;8.40;5.63;;;9.90;99.90;;;;;;5084355;28;20442;-84
2022/04/13 04:16:17;;;;;;;7.18;6.47;;;9.80;99.90;;;;;;5099314;28;20451;-82
2022/04/13 04:18:45;;;;;;;6.95;6.35;;;9.80;99.90;;;;;;5079524;28;20203;-83
2022/04/13 04:23:40;;;;;;;6.50;5.90;;;9.70;99.90;;;;;;5033839;28;20490;-84
2022/04/13 04:26:06;;;;;;;7.00;6.33;;;9.80;99.90;;;;;;5035675;28;20946;-83
2022/04/13 04:28:33;;;;;;;6.23;5.83;;;9.90;99.90;;;;;;5035902;28;20445;-83
2022/04/13 04:31:02;;;;;;;7.22;6.63;;;9.70;99.90;;;;;;5051893;28;20471;-83
2022/04/13 04:33:29;;;;;;;6.65;5.82;;;9.70;99.90;;;;;;5055732;28;20566;-83
2022/04/13 04:35:56;;;;;;;7.30;6.70;;;9.70;99.90;;;;;;5049948;28;20211;-83
2022/04/13 04:38:23;;;;;;;6.95;6.35;;;9.80;99.90;;;;;;5044302;28;20297;-82
2022/04/13 04:40:50;;;;;;;9.00;6.40;;;9.80;99.90;;;;;;5054839;28;20275;-83
2022/04/13 04:43:17;;;;;;;6.97;6.37;;;9.90;99.90;;;;;;5055773;28;20219;-83
2022/04/13 04:45:43;;;;;;;6.40;5.80;;;9.90;99.90;;;;;;5042793;28;20455;-83
2022/04/13 04:48:11;;;;;;;7.47;6.65;;;9.90;99.90;;;;;;5035398;28;20994;-83
2022/04/13 04:50:38;;;;;;;7.63;6.83;;;10.00;99.90;;;;;;5034737;28;20229;-83
2022/04/13 04:53:05;;;;;;;6.38;5.38;;;10.00;99.90;;;;;;5035465;28;20458;-83
2022/04/13 04:55:32;;;;;;;7.20;6.60;;;10.00;99.90;;;;;;5053115;28;20204;-83
2022/04/13 04:58:00;;;;;;;7.40;6.63;;;10.00;99.90;;;;;;5055141;28;20462;-83
2022/04/13 05:00:27;;;;;;;7.80;7.10;;;10.10;99.90;;;;;;5054870;28;20450;-83
2022/04/13 05:02:54;;;;;;;6.40;5.90;;;10.10;99.90;;;;;;5051063;28;20451;-83
2022/04/13 05:05:22;;;;;;;5.43;4.97;;;10.10;99.90;;;;;;5034214;28;20493;-84
2022/04/13 05:07:49;;;;;;;6.37;5.77;;;10.20;99.90;;;;;;5034846;28;20454;-83
2022/04/13 05:10:16;;;;;;;8.20;6.37;;;10.30;99.90;;;;;;5034647;28;20471;-82
2022/04/13 05:12:44;;;;;;;6.53;5.70;;;10.30;99.90;;;;;;5049006;28;20454;-83
2022/04/13 05:15:12;;;;;;;5.87;5.33;;;10.40;99.90;;;;;;5054793;28;20461;-83
2022/04/13 05:17:39;;;;;;;8.00;6.10;;;10.40;99.90;;;;;;5054617;28;20454;-82
2022/04/13 05:20:08;;;;;;;6.00;5.50;;;10.50;99.90;;;;;;5054589;28;20844;-82
2022/04/13 05:22:37;;;;;;;5.70;5.27;;;10.50;99.90;;;;;;5055169;28;20464;-83
2022/04/13 05:25:09;;;;;;;6.43;5.80;;;10.60;99.90;;;;;;5054811;28;21028;-83
2022/04/13 05:27:36;;;;;;;8.00;7.20;;;10.70;99.90;;;;;;5037605;28;20819;-86
2022/04/13 05:30:03;;;;;;;6.53;5.90;;;10.80;99.90;;;;;;5035849;28;20850;-83
2022/04/13 05:32:30;;;;;;;7.07;6.50;;;10.80;99.90;;;;;;5052233;28;20455;-85
2022/04/13 05:35:01;;;;;;;10.13;6.60;;;10.90;99.90;;;;;;5035900;28;20459;-83
2022/04/13 05:37:28;;;;;;;8.90;6.33;;;11.00;99.90;;;;;;5035130;28;20456;-83
2022/04/13 05:39:56;;;;;;;6.43;5.83;;;11.00;99.90;;;;;;5034456;28;20464;-85
2022/04/13 05:42:23;;;;;;;7.80;6.90;;;11.10;99.90;;;;;;5034519;28;20814;-84
2022/04/13 05:44:51;;;;;;;7.37;6.70;;;11.20;99.90;;;;;;5056023;28;20490;-84
2022/04/13 05:47:18;;;;;;;7.57;6.80;;;11.30;99.90;;;;;;5055448;28;20458;-82
2022/04/13 05:49:44;;;;;;;11.23;8.23;;;11.40;99.90;;;;;;5034704;28;20508;-83
2022/04/13 05:52:11;;;;;;;6.77;6.17;;;11.50;99.90;;;;;;5036243;28;20484;-83
2022/04/13 05:54:38;;;;;;;6.60;6.00;;;11.60;99.90;;;;;;5034792;28;21026;-83
2022/04/13 05:57:07;;;;;;;6.20;5.70;;;11.70;99.90;;;;;;5035444;28;20456;-85
2022/04/13 05:59:56;;;;;;;8.27;7.53;;;11.80;99.90;;;;;;5034566;28;20472;-82
2022/04/13 06:02:23;;;;;;;7.03;6.20;;;11.90;99.90;;;;;;5037679;28;20797;-81
2022/04/13 06:04:50;;;;;;;6.53;5.40;;;12.10;99.90;;;;;;5040861;28;20500;-79
2022/04/13 06:07:17;;;;;;;5.87;5.40;;;12.10;99.90;;;;;;5036248;28;20463;-82
2022/04/13 06:09:44;;;;;;;6.90;6.20;;;12.30;99.90;;;;;;5032731;28;20974;-82
2022/04/13 06:12:12;;;;;;;7.83;6.47;;;12.40;99.90;;;;;;5032410;28;20964;-83
2022/04/13 06:14:39;;;;;;;8.70;7.80;;;12.50;99.90;;;;;;5032702;28;20471;-84
2022/04/13 06:17:05;;;;;;;7.93;7.33;;;12.50;99.90;;;;;;5033213;28;20415;-84
2022/04/13 06:19:32;;;;;;;11.43;8.10;;;12.60;99.90;;;;;;5032859;28;20465;-85
2022/04/13 06:21:59;;;;;;;6.20;5.60;;;12.70;99.90;;;;;;5032783;28;20434;-83
2022/04/13 06:24:26;;;;;;;8.10;7.53;;;12.90;99.90;;;;;;5036240;28;20870;-83
2022/04/13 06:26:52;;;;;;;10.03;9.13;;;13.10;99.90;;;;;;5032847;28;20449;-83
2022/04/13 06:29:20;;;;;;;10.43;9.30;;;13.30;99.90;;;;;;5032725;28;20448;-84
2022/04/13 06:31:47;;;;;;;8.17;7.40;;;13.40;99.90;;;;;;5042640;28;20456;-81
2022/04/13 06:34:16;;;;;;;7.70;6.90;;;13.60;99.90;;;;;;5056187;28;20445;-81
2022/04/13 06:36:42;;;;;;;7.47;6.80;;;13.60;99.90;;;;;;5048990;28;20464;-81
2022/04/13 06:39:09;;;;;;;7.40;6.60;;;13.70;99.90;;;;;;5037717;28;20848;-80
2022/04/13 06:41:36;;;;;;;9.77;8.97;;;13.90;99.90;;;;;;5042067;28;20457;-80
2022/04/13 06:44:02;;;;;;;10.43;8.90;;;14.00;99.90;;;;;;5057169;28;20551;-80
2022/04/13 06:46:31;;;;;;;10.37;9.53;;;14.20;99.90;;;;;;5053825;28;20468;-81
2022/04/13 06:48:58;;;;;;;8.00;7.37;;;14.30;99.90;;;;;;5035980;28;20452;-80
2022/04/13 06:51:25;;;;;;;7.87;7.37;;;14.40;99.90;;;;;;5052076;28;20476;-80
2022/04/13 06:53:52;;;;;;;8.17;7.50;;;14.60;99.90;;;;;;5055790;28;20457;-80
2022/04/13 06:56:19;;;;;;;8.07;7.27;;;14.70;99.90;;;;;;5055353;28;20445;-80
2022/04/13 06:58:46;;;;;;;6.67;5.73;;;14.90;99.90;;;;;;5054923;28;20554;-78
2022/04/13 07:01:13;;;;;;;7.70;6.90;;;15.00;99.90;;;;;;5056297;28;20472;-80
2022/04/13 07:03:41;;;;;;;14.60;6.50;;;15.10;99.90;;;;;;5055500;28;20443;-80
2022/04/13 07:06:08;;;;;;;7.67;6.70;;;15.30;99.90;;;;;;5056165;28;20512;-80
2022/04/13 07:08:35;;;;;;;12.03;6.13;;;15.30;99.70;;;;;;5055021;28;20469;-79
2022/04/13 07:11:02;;;;;;;8.33;7.53;;;15.40;99.30;;;;;;5055688;28;21185;-78
2022/04/13 07:13:28;;;;;;;7.20;6.20;;;15.40;99.40;;;;;;5055493;28;20436;-80
2022/04/13 07:15:55;;;;;;;10.60;6.40;;;15.50;99.50;;;;;;5055387;28;20449;-81
2022/04/13 07:18:22;;;;;;;9.77;6.03;;;15.60;99.50;;;;;;5055753;28;20452;-82
2022/04/13 07:20:50;;;;;;;6.77;6.07;;;15.70;99.10;;;;;;5055396;28;20477;-82
2022/04/13 07:23:17;;;;;;;11.47;6.20;;;15.80;98.80;;;;;;5054938;28;20466;-82
2022/04/13 07:25:44;;;;;;;7.20;6.47;;;16.00;98.80;;;;;;5054983;28;20491;-80
2022/04/13 07:28:12;;;;;;;6.83;6.23;;;16.10;98.40;;;;;;5055477;28;20440;-82
2022/04/13 07:30:38;;;;;;;8.70;7.30;;;16.20;98.10;;;;;;5054418;28;20457;-82
2022/04/13 07:33:05;;;;;;;7.10;5.90;;;16.30;97.60;;;;;;5058064;28;20460;-82
2022/04/13 07:35:33;;;;;;;6.57;5.27;;;16.40;98.10;;;;;;5058239;28;20452;-80
2022/04/13 07:38:01;;;;;;;7.40;6.80;;;16.50;98.00;;;;;;5057434;28;20478;-80
2022/04/13 07:40:28;;;;;;;6.87;4.97;;;16.60;97.60;;;;;;5056961;28;20504;-80
2022/04/13 07:42:55;;;;;;;6.70;6.10;;;16.70;97.50;;;;;;5057427;28;20450;-80
2022/04/13 07:45:21;;;;;;;6.77;6.17;;;16.70;97.10;;;;;;5057699;28;20482;-80
2022/04/13 07:47:48;;;;;;;7.13;4.90;;;16.80;97.30;;;;;;5057859;28;20825;-80
2022/04/13 07:50:15;;;;;;;6.73;6.03;;;16.80;97.30;;;;;;5057840;28;20475;-81
2022/04/13 07:52:43;;;;;;;5.67;5.10;;;16.90;97.40;;;;;;5058660;28;20448;-80
2022/04/13 07:55:11;;;;;;;6.97;6.27;;;17.00;97.00;;;;;;5057644;28;20445;-80
2022/04/13 07:57:38;;;;;;;4.57;4.17;;;17.20;96.80;;;;;;5057692;28;20483;-78
2022/04/13 08:00:07;;;;;;;8.87;5.77;;;17.40;96.20;;;;;;5057691;28;20893;-81
2022/04/13 08:02:36;;;;;;;5.60;5.10;;;17.50;95.80;;;;;;5056982;28;20533;-80
2022/04/13 08:05:03;;;;;;;7.77;5.03;;;17.60;94.80;;;;;;5057512;28;20526;-79
2022/04/13 08:07:30;;;;;;;7.83;5.53;;;17.70;94.60;;;;;;5057709;28;20465;-79
2022/04/13 08:09:57;;;;;;;5.60;5.00;;;17.90;94.60;;;;;;5057452;28;20478;-81
2022/04/13 08:12:28;;;;;;;6.23;4.90;;;18.00;93.50;;;;;;5057856;28;20542;-82
2022/04/13 08:14:55;;;;;;;5.83;4.90;;;18.10;92.70;;;;;;5057752;28;20458;-82
2022/04/13 08:17:24;;;;;;;5.83;4.83;;;18.20;92.50;;;;;;5057132;28;20443;-80
2022/04/13 08:19:51;;;;;;;6.90;5.30;;;18.20;91.90;;;;;;5058373;28;20562;-79
2022/04/13 08:22:22;;;;;;;4.80;4.40;;;18.30;92.40;;;;;;5057707;28;20515;-78
2022/04/13 08:24:49;;;;;;;3.87;3.47;;;18.40;92.10;;;;;;5057464;28;20484;-79
2022/04/13 08:27:16;;;;;;;4.83;3.80;;;18.60;91.90;;;;;;5057198;28;20439;-80
2022/04/13 08:29:45;;;;;;;9.13;5.90;;;18.80;91.40;;;;;;5057062;28;20494;-80
2022/04/13 08:32:12;;;;;;;4.50;4.20;;;18.90;91.10;;;;;;5057301;28;20460;-79
2022/04/13 08:34:39;;;;;;;4.97;4.13;;;19.00;91.90;;;;;;5056998;28;20432;-80
2022/04/13 08:37:06;;;;;;;5.20;4.37;;;19.20;91.30;;;;;;5057241;28;20456;-82
2022/04/13 08:39:33;;;;;;;4.80;4.30;;;19.30;91.40;;;;;;5056805;28;20562;-81
2022/04/13 08:42:07;;;;;;;4.97;4.40;;;19.30;91.30;;;;;;5056505;28;21020;-79
2022/04/13 08:44:42;;;;;;;6.00;4.97;;;19.40;92.00;;;;;;5057289;28;20447;-80
2022/04/13 08:47:14;;;;;;;5.73;4.03;;;19.60;91.30;;;;;;5057358;28;20461;-81
2022/04/13 08:49:41;;;;;;;5.27;4.77;;;19.70;90.90;;;;;;5056979;28;20887;-79
2022/04/13 08:52:10;;;;;;;8.67;4.57;;;19.70;90.40;;;;;;5056810;28;20475;-81
2022/04/13 08:54:41;;;;;;;6.43;4.20;;;19.80;90.30;;;;;;5056894;28;20467;-81
2022/04/13 08:57:11;;;;;;;4.73;2.20;;;20.00;90.40;;;;;;5059883;28;20452;-79
2022/04/13 08:59:49;;;;;;;3.77;1.83;;;19.80;68.30;;;;;;5059396;28;20472;-81
2022/04/13 09:02:33;;;;;;;3.80;2.37;;;19.80;66.90;;;;;;5058498;28;20458;-80
2022/04/13 09:05:01;;;;;;;3.50;1.67;;;19.70;68.30;;;;;;5057583;28;20490;-80
2022/04/13 09:07:32;;;;;;;7.57;2.20;;;19.80;66.20;;;;;;5057591;28;20482;-80
2022/04/13 09:10:01;;;;;;;4.87;2.70;;;19.80;64.60;;;;;;5057305;28;20468;-80
2022/04/13 09:12:30;;;;;;;5.87;1.90;;;19.90;65.70;;;;;;5056715;28;20981;-80
2022/04/13 09:15:07;;;;;;;4.90;1.87;;;20.00;64.50;;;;;;5056976;28;20444;-79
2022/04/13 09:17:36;;;;;;;3.30;1.77;;;20.10;62.30;;;;;;5057901;28;20452;-79
2022/04/13 09:20:03;;;;;;;2.77;1.97;;;20.20;62.10;;;;;;5064547;28;20487;-79
2022/04/13 09:22:32;;;;;;;3.80;1.90;;;20.20;59.50;;;;;;5062425;28;20464;-80
2022/04/13 09:25:00;;;;;;;2.70;1.87;;;20.20;59.60;;;;;;5057063;28;20456;-79
2022/04/13 09:27:27;;;;;;;2.93;1.30;;;20.30;60.10;;;;;;5056844;28;20507;-79
2022/04/13 09:29:55;;;;;;;3.23;1.77;;;20.40;60.20;;;;;;5057343;28;20470;-82
2022/04/13 09:32:23;;;;;;;4.13;2.30;;;20.30;59.30;;;;;;5056352;28;20447;-81
2022/04/13 09:34:53;;;;;;;2.77;1.50;;;20.40;58.80;;;;;;5057230;28;20457;-81
2022/04/13 09:37:22;;;;;;;4.27;2.30;;;20.50;58.50;;;;;;5057206;28;20444;-81
2022/04/13 09:39:50;;;;;;;4.03;2.13;;;20.50;57.70;;;;;;5057108;28;20485;-80
2022/04/13 09:42:18;;;;;;;3.07;1.77;;;20.40;57.20;;;;;;5056741;28;20562;-81
2022/04/13 09:44:55;;;;;;;3.00;2.03;;;20.50;57.20;;;;;;5056619;28;20463;-80
2022/04/13 09:47:23;;;;;;;3.37;3.07;;;20.40;55.70;;;;;;5056638;28;20432;-83
2022/04/13 09:49:53;;;;;;;1.73;1.30;;;20.40;54.70;;;;;;5057238;28;20484;-81
2022/04/13 09:52:26;;;;;;;2.57;1.30;;;20.30;54.10;;;;;;5057449;28;20511;-80
2022/04/13 09:54:53;;;;;;;4.03;2.20;;;20.30;55.30;;;;;;5056197;28;20924;-80
2022/04/13 09:57:25;;;;;;;3.63;1.77;;;20.40;55.90;;;;;;5056957;28;20459;-83
2022/04/13 09:59:57;;;;;;;3.23;1.73;;;20.50;56.90;;;;;;5057387;28;20476;-82
2022/04/13 10:02:38;;;;;;;2.70;2.23;;;20.50;56.90;;;;;;5055942;28;20826;-81
2022/04/13 10:05:09;;;;;;;3.70;2.50;;;20.70;57.40;;;;;;5056134;28;20451;-80
2022/04/13 10:07:36;;;;;;;6.30;3.30;;;20.90;59.10;;;;;;5056467;28;20453;-80
2022/04/13 10:10:04;;;;;;;4.13;2.90;;;21.10;61.00;;;;;;5056583;28;20485;-80
2022/04/13 10:12:47;;;;;;;5.00;2.87;;;21.30;59.40;;;;;;5056837;28;20829;-83
2022/04/13 10:15:15;;;;;;;4.73;3.20;;;21.50;59.30;;;;;;5057475;28;20507;-82
2022/04/13 10:17:42;;;;;;;4.40;3.20;;;21.40;59.70;;;;;;5055597;28;20943;-82
2022/04/13 10:20:14;;;;;;;4.00;2.97;;;21.30;59.50;;;;;;5056090;28;20502;-80
2022/04/13 10:25:38;;;;;;;5.13;2.60;;;21.10;60.20;;;;;;5055979;28;20539;-82
2022/04/13 10:28:06;;;;;;;3.37;2.73;;;21.20;57.80;;;;;;5056187;28;20437;-81
2022/04/13 10:30:35;;;;;;;4.37;3.00;;;21.30;57.70;;;;;;5056723;28;20506;-83
2022/04/13 10:33:04;;;;;;;4.73;2.43;;;21.50;59.30;;;;;;5057074;28;20442;-80
2022/04/13 10:35:36;;;;;;;4.93;2.87;;;21.60;58.30;;;;;;5055930;28;20544;-81
2022/04/13 10:38:04;;;;;;;4.13;2.80;;;21.70;58.00;;;;;;5057735;28;20466;-81
2022/04/13 10:40:32;;;;;;;5.37;2.50;;;21.80;57.60;;;;;;5055930;28;20479;-80
2022/04/13 10:43:01;;;;;;;3.90;2.43;;;21.90;57.20;;;;;;5056056;28;20452;-81
2022/04/13 10:45:29;;;;;;;2.73;2.53;;;22.00;57.50;;;;;;5057451;28;20485;-83
2022/04/13 10:48:00;;;;;;;5.87;2.90;;;22.30;58.10;;;;;;5057033;28;20461;-81
2022/04/13 10:50:39;;;;;;;4.73;2.83;;;22.60;55.80;;;;;;5056586;28;20483;-81
2022/04/13 10:53:21;;;;;;;4.57;2.97;;;22.70;55.40;;;;;;5056506;28;20960;-80
2022/04/13 10:55:58;;;;;;;6.07;2.90;;;22.90;55.60;;;;;;5055647;28;20469;-80
2022/04/13 10:58:37;;;;;;;3.30;2.70;;;22.90;56.00;;;;;;5056702;28;20436;-80
2022/04/13 11:01:05;;;;;;;6.53;2.80;;;23.40;58.00;;;;;;5055652;28;20468;-83
2022/04/13 11:03:35;;;;;;;7.20;3.00;;;23.70;56.20;;;;;;5056082;28;20451;-80
2022/04/13 11:06:06;;;;;;;4.20;2.63;;;23.80;54.30;;;;;;5057768;28;20501;-81
2022/04/13 11:08:50;;;;;;;3.30;2.60;;;24.20;54.70;;;;;;5059176;28;20524;-81
2022/04/13 11:11:19;;;;;;;3.97;3.57;;;24.30;54.30;;;;;;5060701;28;20476;-81
2022/04/13 11:13:48;;;;;;;3.87;2.67;;;24.70;54.20;;;;;;5060365;28;20460;-79
2022/04/13 11:16:16;;;;;;;4.67;3.10;;;25.10;53.80;;;;;;5060561;28;20448;-80
2022/04/13 11:18:44;;;;;;;3.70;2.83;;;25.60;52.90;;;;;;5059641;28;20458;-81
2022/04/13 11:21:12;;;;;;;3.10;2.63;;;25.60;51.70;;;;;;5059250;28;20465;-80
2022/04/13 11:23:50;;;;;;;2.97;2.60;;;25.40;51.50;;;;;;5059834;28;20497;-81
2022/04/13 11:26:25;;;;;;;5.17;3.10;;;25.60;53.00;;;;;;5059705;28;20489;-81
2022/04/13 11:29:15;;;;;;;6.40;2.90;;;25.40;52.70;;;;;;5059677;28;20461;-80
2022/04/13 11:35:04;;;;;;;4.80;3.87;;;26.20;52.60;;;;;;5049766;28;20435;-78
2022/04/13 11:37:45;;;;;;;3.90;3.40;;;26.30;52.00;;;;;;5060232;28;20443;-80
2022/04/13 11:40:13;;;;;;;3.57;3.00;;;26.70;50.60;;;;;;5059667;28;20472;-83
2022/04/13 11:42:53;;;;;;;3.17;2.90;;;26.90;50.80;;;;;;5060754;28;20458;-79
2022/04/13 11:45:24;;;;;;;5.40;3.60;;;26.80;51.00;;;;;;5059054;28;20562;-81
2022/04/13 11:47:58;;;;;;;5.20;3.33;;;27.40;51.30;;;;;;5063345;28;20439;-78
2022/04/13 11:50:36;;;;;;;4.83;3.13;;;28.20;51.60;;;;;;5066342;28;20481;-78
2022/04/13 11:53:06;;;;;;;4.70;3.43;;;28.50;48.30;;;;;;5059270;28;20485;-80
2022/04/13 11:55:42;;;;;;;3.03;2.67;;;28.30;48.70;;;;;;5058461;28;20451;-81
2022/04/13 11:58:21;;;;;;;2.87;2.67;;;28.30;47.30;;;;;;5058295;28;20484;-81
2022/04/13 12:01:07;;;;;;;4.80;2.70;;;27.40;47.30;;;;;;5058457;28;20487;-81
2022/04/13 12:03:36;;;;;;;7.23;3.90;;;27.20;49.40;;;;;;5059092;28;20464;-81
2022/04/13 12:06:07;;;;;;;3.63;2.80;;;26.50;48.20;;;;;;5058438;28;20482;-80
2022/04/13 12:08:36;;;;;;;6.50;3.10;;;26.00;48.10;;;;;;5058102;28;20464;-81
2022/04/13 12:11:05;;;;;;;4.33;3.50;;;25.40;49.70;;;;;;5058106;28;21009;-80
2022/04/13 12:13:45;;;;;;;3.00;2.53;;;25.70;50.60;;;;;;5058581;28;20456;-80
2022/04/13 12:16:21;;;;;;;3.97;2.50;;;26.00;50.70;;;;;;5058022;28;20452;-80
2022/04/13 12:18:48;;;;;;;2.93;2.40;;;26.20;49.80;;;;;;5057864;28;20463;-81
2022/04/13 12:21:17;;;;;;;2.30;2.20;;;26.40;49.50;;;;;;5058074;28;21006;-80
2022/04/13 12:23:46;;;;;;;2.83;2.63;;;26.70;48.50;;;;;;5058479;28;20553;-81
2022/04/13 12:26:12;;;;;;;4.83;2.27;;;27.30;48.50;;;;;;5058133;28;20495;-80
2022/04/13 12:28:40;;;;;;;2.90;2.70;;;27.70;49.30;;;;;;5058022;28;20455;-81
2022/04/13 12:31:10;;;;;;;4.00;2.90;;;28.20;46.50;;;;;;5057810;28;20884;-81
2022/04/13 12:33:39;;;;;;;5.43;2.77;;;28.20;44.50;;;;;;5057437;28;20518;-80
2022/04/13 12:36:27;;;;;;;2.87;2.57;;;27.90;45.90;;;;;;5057906;28;20461;-80
2022/04/13 12:38:57;;;;;;;4.67;2.43;;;28.20;46.00;;;;;;5057818;28;20901;-80
2022/04/13 12:41:25;;;;;;;4.67;2.40;;;28.40;45.30;;;;;;5058315;28;20480;-81
2022/04/13 12:43:54;;;;;;;3.50;2.50;;;28.20;44.40;;;;;;5060133;28;20804;-81
2022/04/13 12:46:22;;;;;;;5.93;2.60;;;28.50;44.60;;;;;;5057875;28;20479;-81
2022/04/13 12:48:51;;;;;;;7.20;4.53;;;29.30;44.30;;;;;;5057988;28;20447;-81
2022/04/13 12:51:18;;;;;;;5.43;4.00;;;29.70;42.70;;;;;;5057629;28;20837;-81
2022/04/13 12:53:51;;;;;;;2.40;2.20;;;30.00;42.10;;;;;;5057468;28;20452;-81
2022/04/13 12:56:22;;;;;;;2.97;2.60;;;30.00;39.50;;;;;;5057899;28;20456;-80
2022/04/13 12:58:49;;;;;;;2.80;2.60;;;29.40;41.80;;;;;;5057348;28;20520;-81
2022/04/13 13:01:34;;;;;;;2.83;2.53;;;29.10;39.70;;;;;;5057800;28;20471;-81